Time;durP1;ratioP1;P1;durP2;ratioP2;P2;SDS_P1;SDS_P2;PMS_P1;PMS_P2;Temp;Humidity;BMP_temperature;BMP_pressure;BME280_temperature;BME280_humidity;BME280_pressure;Samples;Min_cycle;Max_cycle;Signal;HPM_P1;HPM_P2
2023/07/07 00:01:22;;;;;;;;;;;;;;;18.62;100.00;95252.78;4898587;29;1027;-52
2023/07/07 00:03:48;;;;;;;;;;;;;;;18.40;100.00;95254.84;4898450;29;1903;-52
2023/07/07 00:06:14;;;;;;;;;;;;;;;18.32;100.00;95251.28;4898767;29;1010;-53
2023/07/07 00:08:41;;;;;;;;;;;;;;;18.33;100.00;95244.84;4898605;29;1083;-53
2023/07/07 00:11:07;;;;;;;;;;;;;;;18.33;100.00;95241.31;4898529;29;1126;-53
2023/07/07 00:13:33;;;;;;;;;;;;;;;18.34;100.00;95242.97;4898416;29;973;-53
2023/07/07 00:15:59;;;;;;;;;;;;;;;18.28;100.00;95246.50;4898700;29;1037;-53
2023/07/07 00:18:29;;;;;;;;;;;;;;;18.29;100.00;95251.72;4898329;29;1040;-53
2023/07/07 00:20:56;;;;;;;;;;;;;;;18.42;100.00;95255.47;4898478;29;1528;-53
2023/07/07 00:23:22;;;;;;;;;;;;;;;18.50;100.00;95258.00;4898408;29;1911;-53
2023/07/07 00:25:58;;;;;;;;;;;;;;;18.50;100.00;95255.28;4898426;29;992;-52
2023/07/07 00:28:24;;;;;;;;;;;;;;;18.37;100.00;95258.81;4898289;29;1043;-53
2023/07/07 00:30:50;;;;;;;;;;;;;;;18.25;100.00;95255.03;4894549;29;1202;-53
2023/07/07 00:33:16;;;;;;;;;;;;;;;18.20;100.00;95262.97;4879643;29;1062;-52
2023/07/07 00:35:46;;;;;;;;;;;;;;;18.31;100.00;95259.66;4879481;29;1086;-52
2023/07/07 00:38:12;;;;;;;;;;;;;;;18.27;100.00;95258.41;4879749;29;991;-53
2023/07/07 00:40:38;;;;;;;;;;;;;;;18.22;100.00;95260.88;4878483;29;1050;-53
2023/07/07 00:43:10;;;;;;;;;;;;;;;18.35;100.00;95260.88;4879419;29;1994;-53
2023/07/07 00:45:36;;;;;;;;;;;;;;;18.28;100.00;95260.88;4879680;29;1035;-53
2023/07/07 00:48:03;;;;;;;;;;;;;;;18.44;100.00;95261.50;4879674;29;960;-53
2023/07/07 00:50:32;;;;;;;;;;;;;;;18.49;100.00;95270.66;4888285;29;1094;-53
2023/07/07 00:52:58;;;;;;;;;;;;;;;18.29;100.00;95269.84;4898178;29;1222;-53
2023/07/07 00:55:28;;;;;;;;;;;;;;;18.20;100.00;95265.66;4898008;29;1034;-53
2023/07/07 00:57:54;;;;;;;;;;;;;;;18.16;100.00;95261.72;4898061;29;1027;-52
2023/07/07 01:00:21;;;;;;;;;;;;;;;18.09;100.00;95257.09;4898039;29;1063;-53
2023/07/07 01:02:50;;;;;;;;;;;;;;;17.87;100.00;95261.00;4897890;29;2025;-53
2023/07/07 01:05:16;;;;;;;;;;;;;;;17.83;100.00;95255.16;4898101;29;1025;-53
2023/07/07 01:07:45;;;;;;;;;;;;;;;17.94;100.00;95261.84;4898077;29;1015;-52
2023/07/07 01:10:11;;;;;;;;;;;;;;;17.91;100.00;95254.16;4897979;29;984;-53
2023/07/07 01:12:37;;;;;;;;;;;;;;;17.72;100.00;95256.56;4898107;29;1071;-53
2023/07/07 01:15:04;;;;;;;;;;;;;;;17.60;100.00;95252.75;4898144;29;983;-52
2023/07/07 01:17:30;;;;;;;;;;;;;;;17.41;100.00;95262.44;4898086;29;1026;-53
2023/07/07 01:20:13;;;;;;;;;;;;;;;17.59;100.00;95258.41;4898092;29;1026;-53
2023/07/07 01:22:57;;;;;;;;;;;;;;;17.69;100.00;95264.25;4898025;29;1906;-52
2023/07/07 01:25:42;;;;;;;;;;;;;;;17.76;100.00;95267.81;4898152;29;983;-52
2023/07/07 01:28:31;;;;;;;;;;;;;;;17.85;100.00;95265.78;4898151;29;1074;-53
2023/07/07 01:31:12;;;;;;;;;;;;;;;17.89;100.00;95258.91;4898025;29;1044;-53
2023/07/07 01:33:40;;;;;;;;;;;;;;;17.70;100.00;95261.34;4898181;29;1010;-53
2023/07/07 01:36:06;;;;;;;;;;;;;;;17.69;100.00;95266.94;4898082;29;1044;-53
2023/07/07 01:38:40;;;;;;;;;;;;;;;17.63;100.00;95267.75;4898029;29;1035;-53
2023/07/07 01:41:18;;;;;;;;;;;;;;;17.61;100.00;95276.06;4897929;29;972;-53
2023/07/07 01:43:49;;;;;;;;;;;;;;;17.52;100.00;95272.69;4897737;29;1907;-53
2023/07/07 01:46:19;;;;;;;;;;;;;;;17.37;100.00;95272.00;4898058;29;1023;-53
2023/07/07 01:48:51;;;;;;;;;;;;;;;17.51;100.00;95270.19;4901396;29;977;-53
2023/07/07 01:51:19;;;;;;;;;;;;;;;17.74;100.00;95264.47;4901109;29;1134;-53
2023/07/07 01:53:46;;;;;;;;;;;;;;;17.69;100.00;95269.66;4901140;29;983;-53
2023/07/07 01:56:16;;;;;;;;;;;;;;;17.47;100.00;95274.34;4901010;29;1062;-53
2023/07/07 01:58:43;;;;;;;;;;;;;;;17.55;100.00;95274.19;4901243;29;1034;-53
2023/07/07 02:01:10;;;;;;;;;;;;;;;17.53;100.00;95273.56;4901182;29;1000;-53
2023/07/07 02:03:36;;;;;;;;;;;;;;;17.51;100.00;95278.28;4889890;29;1911;-53
2023/07/07 02:06:02;;;;;;;;;;;;;;;17.53;100.00;95263.56;4882184;29;1056;-53
2023/07/07 02:08:28;;;;;;;;;;;;;;;17.47;100.00;95271.63;4882059;29;1044;-53
2023/07/07 02:10:54;;;;;;;;;;;;;;;17.36;100.00;95273.06;4882305;29;976;-53
2023/07/07 02:13:20;;;;;;;;;;;;;;;17.27;100.00;95269.66;4882071;29;937;-53
2023/07/07 02:15:46;;;;;;;;;;;;;;;17.30;100.00;95271.13;4882185;29;1026;-53
2023/07/07 02:18:12;;;;;;;;;;;;;;;17.41;100.00;95269.72;4882113;29;1027;-53
2023/07/07 02:20:38;;;;;;;;;;;;;;;17.40;100.00;95257.28;4881987;29;1038;-53
2023/07/07 02:23:04;;;;;;;;;;;;;;;17.21;100.00;95270.47;4881817;29;2075;-53
2023/07/07 02:25:30;;;;;;;;;;;;;;;17.03;100.00;95270.97;4881819;29;1167;-53
2023/07/07 02:27:56;;;;;;;;;;;;;;;16.97;100.00;95264.50;4881805;29;1115;-53
2023/07/07 02:30:23;;;;;;;;;;;;;;;17.16;100.00;95267.53;4881769;29;1118;-53
2023/07/07 02:32:49;;;;;;;;;;;;;;;17.26;100.00;95268.00;4881794;29;1030;-53
2023/07/07 02:35:16;;;;;;;;;;;;;;;17.46;100.00;95262.69;4881641;29;1052;-52
2023/07/07 02:37:42;;;;;;;;;;;;;;;17.48;100.00;95257.09;4881624;29;1004;-52
2023/07/07 02:40:09;;;;;;;;;;;;;;;17.33;100.00;95268.03;4881520;29;2171;-53
2023/07/07 02:42:35;;;;;;;;;;;;;;;17.21;100.00;95265.06;4881689;29;1048;-53
2023/07/07 02:45:01;;;;;;;;;;;;;;;17.17;100.00;95267.34;4881385;29;1988;-53
2023/07/07 02:47:28;;;;;;;;;;;;;;;17.14;100.00;95266.91;4881595;29;1060;-53
2023/07/07 02:49:54;;;;;;;;;;;;;;;17.26;100.00;95272.56;4881334;29;1099;-53
2023/07/07 02:52:20;;;;;;;;;;;;;;;17.20;100.00;95274.19;4881392;29;1033;-53
2023/07/07 02:54:46;;;;;;;;;;;;;;;17.27;100.00;95275.06;4881337;29;1028;-53
2023/07/07 02:57:12;;;;;;;;;;;;;;;17.45;100.00;95274.53;4881431;29;1036;-53
2023/07/07 02:59:38;;;;;;;;;;;;;;;17.52;100.00;95278.09;4881145;29;1043;-53
2023/07/07 03:02:05;;;;;;;;;;;;;;;17.58;100.00;95275.63;4881178;29;1039;-53
2023/07/07 03:04:31;;;;;;;;;;;;;;;17.73;100.00;95273.63;4899063;29;1990;-53
2023/07/07 03:06:57;;;;;;;;;;;;;;;17.72;100.00;95267.38;4899771;29;1043;-53
2023/07/07 03:09:23;;;;;;;;;;;;;;;17.73;100.00;95268.19;4899683;29;1035;-53
2023/07/07 03:11:49;;;;;;;;;;;;;;;17.55;100.00;95264.19;4899716;29;1094;-53
2023/07/07 03:14:18;;;;;;;;;;;;;;;17.42;100.00;95268.72;4899669;29;1071;-53
2023/07/07 03:16:47;;;;;;;;;;;;;;;17.37;100.00;95270.13;4899691;29;1024;-53
2023/07/07 03:19:13;;;;;;;;;;;;;;;17.34;100.00;95275.94;4899665;29;1012;-52
2023/07/07 03:21:39;;;;;;;;;;;;;;;17.59;100.00;95261.94;4899477;29;1576;-53
2023/07/07 03:24:06;;;;;;;;;;;;;;;17.59;100.00;95264.63;4899373;29;1915;-53
2023/07/07 03:26:32;;;;;;;;;;;;;;;17.68;100.00;95266.13;4899453;29;1059;-53
2023/07/07 03:28:58;;;;;;;;;;;;;;;17.88;100.00;95268.09;4899395;29;1031;-53
2023/07/07 03:31:25;;;;;;;;;;;;;;;18.00;100.00;95268.31;4899436;29;1021;-53
2023/07/07 03:33:56;;;;;;;;;;;;;;;18.09;100.00;95273.31;4899315;29;1048;-53
2023/07/07 03:36:24;;;;;;;;;;;;;;;18.05;100.00;95276.66;4899174;29;1122;-52
2023/07/07 03:38:50;;;;;;;;;;;;;;;18.05;100.00;95282.91;4899415;29;1052;-53
2023/07/07 03:41:17;;;;;;;;;;;;;;;18.19;100.00;95285.63;4899318;29;1031;-53
2023/07/07 03:43:44;;;;;;;;;;;;;;;18.31;100.00;95289.41;4899166;29;1979;-53
2023/07/07 03:46:11;;;;;;;;;;;;;;;18.38;100.00;95284.81;4899141;29;1043;-53
2023/07/07 03:48:37;;;;;;;;;;;;;;;18.48;100.00;95289.84;4899119;29;995;-53
2023/07/07 03:51:04;;;;;;;;;;;;;;;18.58;100.00;95290.25;4898728;29;1098;-53
2023/07/07 03:53:31;;;;;;;;;;;;;;;18.69;100.00;95283.41;4899187;29;1046;-53
2023/07/07 03:55:57;;;;;;;;;;;;;;;18.79;100.00;95286.50;4899049;29;969;-53
2023/07/07 03:58:24;;;;;;;;;;;;;;;18.90;100.00;95291.34;4898980;29;1035;-53
2023/07/07 04:00:50;;;;;;;;;;;;;;;18.99;100.00;95285.69;4898965;29;961;-53
2023/07/07 04:03:17;;;;;;;;;;;;;;;18.93;100.00;95279.22;4890262;29;1919;-53
2023/07/07 04:05:44;;;;;;;;;;;;;;;18.92;100.00;95289.25;4880140;29;1020;-53
2023/07/07 04:08:10;;;;;;;;;;;;;;;19.10;100.00;95283.19;4880307;29;1051;-53
2023/07/07 04:10:38;;;;;;;;;;;;;;;19.21;100.00;95286.28;4879611;29;1978;-53
2023/07/07 04:13:04;;;;;;;;;;;;;;;19.25;100.00;95287.53;4880132;29;961;-54
2023/07/07 04:15:30;;;;;;;;;;;;;;;19.36;100.00;95294.19;4880122;29;1028;-53
2023/07/07 04:17:57;;;;;;;;;;;;;;;19.49;100.00;95294.97;4879941;29;1014;-54
2023/07/07 04:20:23;;;;;;;;;;;;;;;19.66;100.00;95297.22;4879775;29;1035;-54
2023/07/07 04:22:49;;;;;;;;;;;;;;;19.76;100.00;95284.06;4879793;29;1895;-53
2023/07/07 04:25:16;;;;;;;;;;;;;;;19.86;100.00;95287.16;4880035;29;979;-53
2023/07/07 04:27:43;;;;;;;;;;;;;;;19.85;100.00;95290.91;4879954;29;1035;-53
2023/07/07 04:30:09;;;;;;;;;;;;;;;19.66;100.00;95289.91;4879765;29;1090;-53
2023/07/07 04:32:36;;;;;;;;;;;;;;;19.69;100.00;95284.06;4879774;29;985;-53
2023/07/07 04:35:03;;;;;;;;;;;;;;;19.82;100.00;95290.50;4892747;29;1043;-53
2023/07/07 04:37:30;;;;;;;;;;;;;;;19.91;100.00;95289.22;4898406;29;1047;-53
2023/07/07 04:39:56;;;;;;;;;;;;;;;20.09;100.00;95293.94;4898513;29;1003;-53
2023/07/07 04:42:22;;;;;;;;;;;;;;;20.12;100.00;95292.66;4898323;29;1129;-53
2023/07/07 04:44:48;;;;;;;;;;;;;;;20.38;99.49;95295.22;4898331;29;1990;-53
2023/07/07 04:47:15;;;;;;;;;;;;;;;20.47;100.00;95296.63;4898364;29;1097;-53
2023/07/07 04:49:41;;;;;;;;;;;;;;;20.51;100.00;95296.16;4898044;29;1232;-53
2023/07/07 04:52:07;;;;;;;;;;;;;;;20.62;100.00;95295.50;4898469;29;1034;-53
2023/07/07 04:54:35;;;;;;;;;;;;;;;20.75;100.00;95303.53;4898241;29;1023;-53
2023/07/07 04:57:03;;;;;;;;;;;;;;;20.85;100.00;95303.06;4898164;29;1010;-53
2023/07/07 04:59:30;;;;;;;;;;;;;;;20.77;98.65;95304.19;4898199;29;925;-53
2023/07/07 05:01:57;;;;;;;;;;;;;;;20.79;96.69;95302.06;4898196;29;1865;-53
2023/07/07 05:04:23;;;;;;;;;;;;;;;20.86;97.11;95299.28;4898003;29;1997;-53
2023/07/07 05:06:49;;;;;;;;;;;;;;;21.00;95.29;95297.28;4898120;29;1114;-53
2023/07/07 05:09:16;;;;;;;;;;;;;;;21.01;98.40;95307.94;4897113;29;1059;-53
2023/07/07 05:11:42;;;;;;;;;;;;;;;21.21;96.32;95299.59;4898239;29;987;-53
2023/07/07 05:14:08;;;;;;;;;;;;;;;21.23;96.49;95300.22;4898174;29;1053;-53
2023/07/07 05:16:35;;;;;;;;;;;;;;;21.43;96.90;95299.19;4898072;29;1015;-53
2023/07/07 05:19:02;;;;;;;;;;;;;;;21.63;94.98;95307.16;4898361;29;1039;-53
2023/07/07 05:21:28;;;;;;;;;;;;;;;21.85;94.26;95307.50;4898281;29;1047;-53
2023/07/07 05:23:54;;;;;;;;;;;;;;;22.05;93.93;95306.47;4901688;29;1990;-53
2023/07/07 05:26:21;;;;;;;;;;;;;;;22.09;91.72;95311.19;4901551;29;1020;-53
2023/07/07 05:28:48;;;;;;;;;;;;;;;21.92;94.89;95312.91;4901518;29;1040;-53
2023/07/07 05:31:14;;;;;;;;;;;;;;;21.91;96.31;95314.78;4901410;29;1051;-53
2023/07/07 05:33:40;;;;;;;;;;;;;;;21.88;96.91;95311.69;4900254;29;938;-53
2023/07/07 05:36:08;;;;;;;;;;;;;;;21.82;94.47;95316.97;4901616;29;985;-53
2023/07/07 05:38:37;;;;;;;;;;;;;;;21.91;96.42;95313.94;4901567;29;971;-53
2023/07/07 05:41:03;;;;;;;;;;;;;;;22.00;95.27;95318.03;4901351;29;1134;-53
2023/07/07 05:43:29;;;;;;;;;;;;;;;22.32;94.88;95310.50;4901056;29;1905;-53
2023/07/07 05:45:56;;;;;;;;;;;;;;;22.42;93.43;95316.25;4900806;29;1071;-53
2023/07/07 05:48:22;;;;;;;;;;;;;;;22.42;93.83;95309.94;4901089;29;1452;-53
2023/07/07 05:50:49;;;;;;;;;;;;;;;22.47;91.99;95315.53;4901163;29;1229;-53
2023/07/07 05:53:16;;;;;;;;;;;;;;;22.64;91.49;95310.25;4901279;29;979;-53
2023/07/07 05:55:46;;;;;;;;;;;;;;;22.74;90.04;95306.97;4901050;29;1098;-53
2023/07/07 05:58:13;;;;;;;;;;;;;;;23.00;88.95;95305.72;4901154;29;1018;-53
2023/07/07 06:00:39;;;;;;;;;;;;;;;23.09;91.73;95303.50;4901005;29;984;-53
2023/07/07 06:03:05;;;;;;;;;;;;;;;23.08;90.36;95304.56;4901064;29;1915;-53
2023/07/07 06:05:31;;;;;;;;;;;;;;;23.26;88.81;95306.34;4900895;29;1094;-53
2023/07/07 06:07:57;;;;;;;;;;;;;;;23.46;89.08;95320.47;4900872;29;1095;-53
2023/07/07 06:10:24;;;;;;;;;;;;;;;23.27;86.33;95314.28;4900960;29;1039;-53
2023/07/07 06:12:50;;;;;;;;;;;;;;;23.44;87.26;95314.41;4900756;29;1043;-53
2023/07/07 06:15:16;;;;;;;;;;;;;;;23.55;87.30;95310.84;4900580;29;1051;-53
2023/07/07 06:17:44;;;;;;;;;;;;;;;23.68;88.66;95314.41;4900919;29;1039;-53
2023/07/07 06:20:11;;;;;;;;;;;;;;;23.92;86.84;95321.53;4900652;29;1114;-54
2023/07/07 06:22:37;;;;;;;;;;;;;;;23.93;83.33;95316.88;4900669;29;1236;-53
2023/07/07 06:25:04;;;;;;;;;;;;;;;24.20;84.42;95317.16;4899254;29;1994;-53
2023/07/07 06:27:30;;;;;;;;;;;;;;;24.38;84.61;95318.03;4900480;29;1035;-53
2023/07/07 06:29:56;;;;;;;;;;;;;;;24.43;86.42;95312.69;4883760;29;1048;-53
2023/07/07 06:32:22;;;;;;;;;;;;;;;24.35;83.86;95314.72;4899930;29;1149;-53
2023/07/07 06:34:48;;;;;;;;;;;;;;;24.39;84.99;95312.34;4900535;29;952;-53
2023/07/07 06:37:14;;;;;;;;;;;;;;;24.59;84.46;95317.41;4900362;29;1075;-53
2023/07/07 06:39:40;;;;;;;;;;;;;;;24.75;82.83;95313.84;4900344;29;1068;-53
2023/07/07 06:42:08;;;;;;;;;;;;;;;24.88;83.67;95318.19;4900342;29;1047;-53
2023/07/07 06:44:37;;;;;;;;;;;;;;;24.96;82.89;95319.69;4900130;29;1911;-53
2023/07/07 06:47:05;;;;;;;;;;;;;;;25.06;81.20;95319.88;4900020;29;1035;-53
2023/07/07 06:49:31;;;;;;;;;;;;;;;25.15;82.23;95325.72;4899931;29;1241;-54
2023/07/07 07:08:32;;;;;;;;;;;;;;;25.82;81.66;95330.34;5091084;27;1622;-53
2023/07/07 07:11:00;;;;;;;;;;;;;;;26.07;83.56;95340.84;5090986;28;956;-53
2023/07/07 07:13:26;;;;;;;;;;;;;;;26.30;79.60;95334.28;5090774;28;1051;-54
2023/07/07 07:15:52;;;;;;;;;;;;;;;26.40;81.23;95338.22;5069316;28;2013;-54
2023/07/07 07:18:18;;;;;;;;;;;;;;;26.40;77.91;95321.78;5070685;28;1039;-53
2023/07/07 07:20:48;;;;;;;;;;;;;;;26.40;79.36;95328.09;5070603;28;969;-53
2023/07/07 07:23:15;;;;;;;;;;;;;;;26.48;74.71;95326.78;5070392;28;1112;-53
2023/07/07 07:25:42;;;;;;;;;;;;;;;26.54;74.59;95334.00;5070367;28;1072;-53
2023/07/07 07:28:09;;;;;;;;;;;;;;;26.68;77.71;95331.72;5070266;28;1096;-53
2023/07/07 07:30:35;;;;;;;;;;;;;;;26.76;78.71;95327.69;5070798;28;1243;-54
2023/07/07 07:33:03;;;;;;;;;;;;;;;26.90;75.83;95333.56;5090603;28;1005;-53
2023/07/07 07:35:29;;;;;;;;;;;;;;;27.08;75.46;95334.03;5090521;28;1019;-53
2023/07/07 07:37:55;;;;;;;;;;;;;;;27.14;75.32;95331.31;5090402;28;1909;-53
2023/07/07 07:40:23;;;;;;;;;;;;;;;27.29;76.14;95339.72;5090312;28;961;-54
2023/07/07 07:42:52;;;;;;;;;;;;;;;27.34;75.77;95327.94;5090760;28;1015;-53
2023/07/07 07:45:18;;;;;;;;;;;;;;;27.48;70.90;95340.13;5090190;28;1061;-53
2023/07/07 07:47:45;;;;;;;;;;;;;;;27.46;70.27;95339.56;5090337;28;957;-53
2023/07/07 07:50:11;;;;;;;;;;;;;;;27.49;70.83;95338.22;5090136;28;1127;-54
2023/07/07 07:52:38;;;;;;;;;;;;;;;27.50;74.99;95335.22;5090155;28;1049;-53
2023/07/07 07:55:04;;;;;;;;;;;;;;;27.49;72.85;95336.31;5089990;28;1104;-53
2023/07/07 07:57:30;;;;;;;;;;;;;;;27.71;73.63;95344.41;5071959;28;1910;-54
2023/07/07 07:59:56;;;;;;;;;;;;;;;27.78;70.55;95349.69;5090167;28;1083;-54
2023/07/07 08:02:23;;;;;;;;;;;;;;;27.83;70.19;95342.31;5088705;28;1119;-54
2023/07/07 08:04:49;;;;;;;;;;;;;;;27.91;67.02;95345.69;5089856;28;1290;-54
2023/07/07 08:07:15;;;;;;;;;;;;;;;27.78;69.83;95345.03;5089528;28;1329;-54
2023/07/07 08:09:41;;;;;;;;;;;;;;;27.83;67.83;95334.06;5074607;28;948;-53
2023/07/07 08:12:08;;;;;;;;;;;;;;;27.84;69.30;95341.19;5076235;28;1073;-53
2023/07/07 08:14:34;;;;;;;;;;;;;;;27.72;65.78;95343.34;5076179;28;1116;-54
2023/07/07 08:17:04;;;;;;;;;;;;;;;27.73;68.79;95341.41;5076162;28;1910;-54
2023/07/07 08:19:31;;;;;;;;;;;;;;;27.59;68.03;95341.88;5076150;28;953;-53
2023/07/07 08:21:57;;;;;;;;;;;;;;;27.37;71.32;95350.22;5076111;28;980;-54
2023/07/07 08:24:24;;;;;;;;;;;;;;;27.39;64.47;95349.94;5075957;28;1853;-54
2023/07/07 08:26:51;;;;;;;;;;;;;;;27.47;65.49;95341.25;5076162;28;1020;-53
2023/07/07 08:29:17;;;;;;;;;;;;;;;27.51;70.18;95341.53;5075845;28;1041;-54
2023/07/07 08:31:43;;;;;;;;;;;;;;;27.49;66.50;95346.44;5075822;28;1037;-54
2023/07/07 08:34:09;;;;;;;;;;;;;;;27.84;68.21;95341.19;5075849;28;1100;-54
2023/07/07 08:36:35;;;;;;;;;;;;;;;27.79;68.96;95343.09;5075694;28;1992;-53
2023/07/07 08:39:13;;;;;;;;;;;;;;;27.87;67.63;95339.00;5075677;28;1132;-54
2023/07/07 08:41:43;;;;;;;;;;;;;;;27.84;67.86;95340.38;5075928;28;977;-54
2023/07/07 08:44:12;;;;;;;;;;;;;;;27.91;69.59;95348.44;5075897;28;1055;-54
2023/07/07 08:46:47;;;;;;;;;;;;;;;27.71;65.06;95338.09;5075615;28;1053;-54
2023/07/07 08:49:17;;;;;;;;;;;;;;;27.88;69.67;95333.25;5075611;28;1029;-54
2023/07/07 08:51:48;;;;;;;;;;;;;;;28.16;67.62;95334.00;5075532;28;1096;-54
2023/07/07 08:54:21;;;;;;;;;;;;;;;28.39;64.62;95336.28;5073431;28;3049;-54
2023/07/07 08:56:53;;;;;;;;;;;;;;;27.94;60.13;95334.16;5075307;28;2021;-54
2023/07/07 08:59:22;;;;;;;;;;;;;;;27.56;63.54;95325.91;5075106;28;1143;-54
2023/07/07 09:01:51;;;;;;;;;;;;;;;27.14;61.67;95328.59;5075163;28;1206;-54
2023/07/07 09:04:27;;;;;;;;;;;;;;;27.16;61.99;95329.97;5075068;28;1326;-54
2023/07/07 09:06:55;;;;;;;;;;;;;;;27.59;62.37;95327.31;5074821;28;1239;-54
2023/07/07 09:09:24;;;;;;;;;;;;;;;27.77;60.04;95328.78;5075057;28;977;-55
2023/07/07 09:11:56;;;;;;;;;;;;;;;27.53;62.84;95325.63;5074997;28;1213;-54
2023/07/07 09:14:25;;;;;;;;;;;;;;;27.69;62.08;95330.13;5074781;28;1051;-54
2023/07/07 09:16:52;;;;;;;;;;;;;;;27.61;62.46;95327.88;5074865;28;1906;-54
2023/07/07 09:19:22;;;;;;;;;;;;;;;27.35;61.18;95318.63;5074636;28;981;-54
2023/07/07 09:21:58;;;;;;;;;;;;;;;27.33;64.02;95324.38;5074758;28;1048;-54
2023/07/07 09:24:29;;;;;;;;;;;;;;;27.80;62.78;95326.34;5074923;28;1036;-54
2023/07/07 09:26:59;;;;;;;;;;;;;;;28.07;60.37;95319.94;5074836;28;976;-54
2023/07/07 09:29:26;;;;;;;;;;;;;;;28.23;60.60;95327.16;5074638;28;1217;-54
2023/07/07 09:31:52;;;;;;;;;;;;;;;28.19;61.22;95326.03;5074948;28;1240;-54
2023/07/07 09:34:20;;;;;;;;;;;;;;;28.06;59.33;95320.19;5074861;28;973;-54
2023/07/07 09:36:49;;;;;;;;;;;;;;;27.77;60.38;95328.78;5074644;28;1914;-54
2023/07/07 09:39:21;;;;;;;;;;;;;;;27.78;61.28;95325.78;5074530;28;1700;-54
2023/07/07 09:41:57;;;;;;;;;;;;;;;27.64;61.63;95327.34;5074448;28;1983;-54
2023/07/07 09:44:41;;;;;;;;;;;;;;;27.43;62.69;95329.97;5074667;28;1032;-54
2023/07/07 09:47:26;;;;;;;;;;;;;;;27.22;62.30;95325.34;5074488;28;949;-53
2023/07/07 09:50:01;;;;;;;;;;;;;;;27.08;61.03;95317.56;5074335;28;976;-54
2023/07/07 09:52:30;;;;;;;;;;;;;;;27.33;61.14;95313.41;5074553;28;1036;-54
2023/07/07 09:54:58;;;;;;;;;;;;;;;27.67;64.99;95315.81;5074202;28;1053;-54
2023/07/07 09:57:27;;;;;;;;;;;;;;;27.91;61.95;95310.78;5074307;28;1910;-54
2023/07/07 09:59:55;;;;;;;;;;;;;;;27.90;61.02;95311.06;5072977;28;1029;-54
2023/07/07 10:02:23;;;;;;;;;;;;;;;27.75;59.48;95320.00;5074050;28;1142;-54
2023/07/07 10:04:52;;;;;;;;;;;;;;;27.52;61.30;95321.22;5073900;28;1657;-54
2023/07/07 10:07:19;;;;;;;;;;;;;;;27.18;62.81;95321.47;5073797;28;1101;-53
2023/07/07 10:09:45;;;;;;;;;;;;;;;26.82;63.24;95323.91;5073936;28;1033;-55
2023/07/07 10:12:14;;;;;;;;;;;;;;;26.70;63.51;95320.50;5073946;28;1025;-54
2023/07/07 10:14:41;;;;;;;;;;;;;;;26.52;64.57;95319.72;5074012;28;1059;-54
2023/07/07 10:17:22;;;;;;;;;;;;;;;26.63;62.67;95318.75;5073773;28;1996;-54
2023/07/07 10:19:59;;;;;;;;;;;;;;;27.12;62.90;95322.53;5073861;28;1092;-54
2023/07/07 10:22:25;;;;;;;;;;;;;;;27.53;60.06;95328.38;5074010;28;1215;-54
2023/07/07 10:24:51;;;;;;;;;;;;;;;27.75;63.89;95318.06;5073896;28;992;-54
2023/07/07 10:27:19;;;;;;;;;;;;;;;27.84;58.94;95319.22;5073757;28;1049;-54
2023/07/07 10:29:45;;;;;;;;;;;;;;;28.04;61.84;95317.72;5073688;28;1045;-54
2023/07/07 10:32:16;;;;;;;;;;;;;;;28.10;59.21;95311.16;5073471;28;985;-54
2023/07/07 10:34:45;;;;;;;;;;;;;;;28.28;58.23;95307.09;5073654;28;1124;-54
2023/07/07 10:37:17;;;;;;;;;;;;;;;28.38;58.48;95300.78;5073532;28;1906;-54
2023/07/07 10:39:43;;;;;;;;;;;;;;;28.44;57.42;95297.00;5073648;28;1630;-54
2023/07/07 10:42:09;;;;;;;;;;;;;;;28.49;57.53;95296.97;5073605;28;1073;-54
2023/07/07 10:44:35;;;;;;;;;;;;;;;28.56;56.25;95297.59;5073557;28;1039;-54
2023/07/07 10:47:01;;;;;;;;;;;;;;;28.53;57.97;95300.91;5073747;28;945;-54
2023/07/07 10:49:27;;;;;;;;;;;;;;;28.41;58.18;95294.78;5072334;28;1107;-54
2023/07/07 10:52:11;;;;;;;;;;;;;;;28.22;60.76;95283.44;5073655;28;965;-54
2023/07/07 10:54:40;;;;;;;;;;;;;;;28.20;59.17;95291.13;5073478;28;1065;-54
2023/07/07 10:57:13;;;;;;;;;;;;;;;27.85;60.64;95289.84;5073324;28;1902;-54
2023/07/07 10:59:42;;;;;;;;;;;;;;;27.58;58.99;95289.94;5073451;28;1056;-54
2023/07/07 11:02:36;;;;;;;;;;;;;;;27.58;62.99;95278.97;5073482;28;1374;-54
2023/07/07 11:05:17;;;;;;;;;;;;;;;27.83;60.56;95283.78;5073384;28;1259;-54
2023/07/07 11:07:46;;;;;;;;;;;;;;;27.75;59.70;95281.53;5073125;28;1213;-54
2023/07/07 11:10:30;;;;;;;;;;;;;;;27.74;62.35;95277.97;5073534;28;1132;-54
2023/07/07 11:13:08;;;;;;;;;;;;;;;27.93;61.49;95283.06;5072695;28;1037;-54
2023/07/07 11:15:42;;;;;;;;;;;;;;;27.86;60.80;95280.50;5072459;28;1064;-54
2023/07/07 11:18:39;;;;;;;;;;;;;;;28.12;60.60;95277.91;5072309;28;1910;-54
2023/07/07 11:21:31;;;;;;;;;;;;;;;28.21;58.14;95262.53;5072599;28;1033;-54
2023/07/07 11:24:11;;;;;;;;;;;;;;;28.15;59.93;95261.72;5070335;28;1224;-54
2023/07/07 11:26:40;;;;;;;;;;;;;;;28.02;58.31;95270.44;5072536;28;968;-54
2023/07/07 11:29:15;;;;;;;;;;;;;;;27.58;59.16;95257.00;5072510;28;1078;-54
2023/07/07 11:31:41;;;;;;;;;;;;;;;27.68;60.40;95258.97;5072427;28;972;-54
2023/07/07 11:34:28;;;;;;;;;;;;;;;27.97;61.53;95265.75;5072208;28;1041;-54
2023/07/07 11:37:06;;;;;;;;;;;;;;;28.19;59.78;95254.56;5072153;28;1914;-54
2023/07/07 11:39:35;;;;;;;;;;;;;;;28.41;58.24;95248.03;5072267;28;1042;-55
2023/07/07 11:42:21;;;;;;;;;;;;;;;28.44;57.20;95236.50;5072364;28;1040;-55
2023/07/07 11:44:53;;;;;;;;;;;;;;;28.63;57.62;95234.09;5075560;28;1035;-55
2023/07/07 11:47:34;;;;;;;;;;;;;;;28.65;55.09;95240.13;5075855;28;1028;-55
2023/07/07 11:50:10;;;;;;;;;;;;;;;28.72;58.22;95245.34;5075886;28;1108;-55
2023/07/07 11:52:55;;;;;;;;;;;;;;;28.84;56.84;95243.19;5075771;28;1100;-55
2023/07/07 11:55:40;;;;;;;;;;;;;;;28.76;56.78;95240.94;5074468;28;1053;-55
2023/07/07 11:58:17;;;;;;;;;;;;;;;28.67;58.06;95237.13;5075766;28;1910;-55
2023/07/07 12:00:52;;;;;;;;;;;;;;;28.48;58.14;95250.53;5075815;28;1016;-55
2023/07/07 12:03:36;;;;;;;;;;;;;;;28.51;58.52;95241.72;5075669;28;996;-55
2023/07/07 12:06:23;;;;;;;;;;;;;;;28.64;57.82;95254.97;5075307;28;1557;-54
2023/07/07 12:09:01;;;;;;;;;;;;;;;28.70;57.73;95250.31;5075375;28;1105;-55
2023/07/07 12:11:28;;;;;;;;;;;;;;;28.66;57.25;95258.28;5075530;28;1009;-55
2023/07/07 12:13:59;;;;;;;;;;;;;;;28.55;58.42;95251.94;5075383;28;1053;-54
2023/07/07 12:16:27;;;;;;;;;;;;;;;28.59;57.27;95250.31;5075322;28;1991;-54
2023/07/07 12:19:10;;;;;;;;;;;;;;;28.68;55.97;95252.50;5075284;28;1101;-55
2023/07/07 12:21:37;;;;;;;;;;;;;;;28.69;55.53;95248.66;5074227;28;997;-54
2023/07/07 12:24:18;;;;;;;;;;;;;;;28.70;56.43;95253.06;5074343;28;1037;-55
2023/07/07 12:26:48;;;;;;;;;;;;;;;28.71;58.49;95246.47;5073077;28;972;-54
2023/07/07 12:29:16;;;;;;;;;;;;;;;28.78;56.12;95253.34;5074136;28;1083;-54
2023/07/07 12:31:43;;;;;;;;;;;;;;;28.86;54.90;95265.75;5073781;28;1619;-55
2023/07/07 12:34:37;;;;;;;;;;;;;;;28.86;53.32;95249.22;5073728;28;1047;-54
2023/07/07 12:37:12;;;;;;;;;;;;;;;28.86;55.17;95251.16;5073178;28;1910;-54
2023/07/07 12:39:49;;;;;;;;;;;;;;;28.85;57.00;95249.50;5073379;28;1041;-55
2023/07/07 12:42:15;;;;;;;;;;;;;;;28.45;58.69;95248.31;5073906;28;1102;-55
2023/07/07 12:44:42;;;;;;;;;;;;;;;28.30;55.25;95249.91;5073850;28;1119;-54
2023/07/07 12:47:26;;;;;;;;;;;;;;;28.30;55.82;95249.09;5073659;28;1557;-54
2023/07/07 12:49:57;;;;;;;;;;;;;;;28.13;56.70;95254.81;5073607;28;1136;-54
2023/07/07 12:52:25;;;;;;;;;;;;;;;28.21;54.17;95249.63;5073852;28;1075;-55
2023/07/07 12:54:52;;;;;;;;;;;;;;;28.43;55.71;95249.41;5073578;28;945;-55
2023/07/07 12:57:18;;;;;;;;;;;;;;;28.43;54.90;95245.81;5073271;28;1991;-55
2023/07/07 12:59:44;;;;;;;;;;;;;;;28.45;53.97;95240.06;5073265;28;1061;-55
2023/07/07 13:02:18;;;;;;;;;;;;;;;28.38;58.49;95240.31;5073383;28;1031;-55
2023/07/07 13:04:48;;;;;;;;;;;;;;;28.47;55.75;95233.19;5073675;28;1302;-55
2023/07/07 13:07:19;;;;;;;;;;;;;;;28.67;53.76;95242.63;5074257;28;1302;-55
2023/07/07 13:09:47;;;;;;;;;;;;;;;28.73;54.41;95238.75;5074186;28;1037;-55
2023/07/07 13:12:48;;;;;;;;;;;;;;;28.55;52.32;95246.44;5074121;28;1465;-55
2023/07/07 13:15:18;;;;;;;;;;;;;;;28.57;52.20;95244.25;5031736;28;1221;-55
2023/07/07 13:17:46;;;;;;;;;;;;;;;28.51;55.19;95244.47;5066656;28;1894;-55
2023/07/07 13:20:19;;;;;;;;;;;;;;;28.57;53.60;95237.91;5074058;28;968;-55
2023/07/07 13:22:58;;;;;;;;;;;;;;;28.28;53.50;95246.63;5074113;28;965;-55